sensor_id;sensor_type;location;lat;lon;timestamp;pressure;altitude;pressure_sealevel;temperature;humidity
55044;BME280;54902;50.420;18.854;2023-05-10T00:00:17;101589.94;;;10.12;50.29
55044;BME280;54902;50.420;18.854;2023-05-10T00:00:48;101585.45;;;10.11;50.29
55044;BME280;54902;50.420;18.854;2023-05-10T00:01:19;101592.79;;;10.11;50.32
55044;BME280;54902;50.420;18.854;2023-05-10T00:01:50;101589.19;;;10.10;50.33
55044;BME280;54902;50.420;18.854;2023-05-10T00:02:20;101582.83;;;10.10;50.32
55044;BME280;54902;50.420;18.854;2023-05-10T00:02:51;101587.43;;;10.09;50.33
55044;BME280;54902;50.420;18.854;2023-05-10T00:03:23;101578.27;;;10.10;50.33
55044;BME280;54902;50.420;18.854;2023-05-10T00:03:54;101570.18;;;10.09;50.34
55044;BME280;54902;50.420;18.854;2023-05-10T00:04:25;101585.67;;;10.08;50.35
55044;BME280;54902;50.420;18.854;2023-05-10T00:04:58;101573.89;;;10.08;50.37
55044;BME280;54902;50.420;18.854;2023-05-10T00:05:29;101577.48;;;10.08;50.39
55044;BME280;54902;50.420;18.854;2023-05-10T00:06:00;101580.32;;;10.07;50.38
55044;BME280;54902;50.420;18.854;2023-05-10T00:06:31;101582.07;;;10.08;50.37
55044;BME280;54902;50.420;18.854;2023-05-10T00:07:02;101583.05;;;10.07;50.39
55044;BME280;54902;50.420;18.854;2023-05-10T00:07:33;101582.19;;;10.06;50.39
55044;BME280;54902;50.420;18.854;2023-05-10T00:08:04;101583.05;;;10.07;50.39
55044;BME280;54902;50.420;18.854;2023-05-10T00:08:35;101581.29;;;10.06;50.39
55044;BME280;54902;50.420;18.854;2023-05-10T00:09:06;101581.41;;;10.04;50.39
55044;BME280;54902;50.420;18.854;2023-05-10T00:09:37;101578.67;;;10.04;50.42
55044;BME280;54902;50.420;18.854;2023-05-10T00:10:08;101576.84;;;10.05;50.44
55044;BME280;54902;50.420;18.854;2023-05-10T00:10:39;101576.91;;;10.03;50.45
55044;BME280;54902;50.420;18.854;2023-05-10T00:11:11;101581.41;;;10.04;50.50
55044;BME280;54902;50.420;18.854;2023-05-10T00:11:42;101575.19;;;10.02;50.50
55044;BME280;54902;50.420;18.854;2023-05-10T00:12:13;101582.38;;;10.03;50.48
55044;BME280;54902;50.420;18.854;2023-05-10T00:12:44;101576.05;;;10.03;50.49
55044;BME280;54902;50.420;18.854;2023-05-10T00:13:15;101575.19;;;10.02;50.50
55044;BME280;54902;50.420;18.854;2023-05-10T00:13:46;101572.53;;;10.01;50.52
55044;BME280;54902;50.420;18.854;2023-05-10T00:14:17;101576.16;;;10.01;50.50
55044;BME280;54902;50.420;18.854;2023-05-10T00:14:49;101581.73;;;10.00;50.50
55044;BME280;54902;50.420;18.854;2023-05-10T00:15:22;101569.92;;;9.99;50.49
55044;BME280;54902;50.420;18.854;2023-05-10T00:15:53;101573.66;;;9.98;50.51
55044;BME280;54902;50.420;18.854;2023-05-10T00:16:24;101578.22;;;9.98;50.51
55044;BME280;54902;50.420;18.854;2023-05-10T00:16:55;101583.69;;;9.98;50.55
55044;BME280;54902;50.420;18.854;2023-05-10T00:17:26;101581.05;;;9.96;50.53
55044;BME280;54902;50.420;18.854;2023-05-10T00:17:57;101580.09;;;9.97;50.55
55044;BME280;54902;50.420;18.854;2023-05-10T00:18:28;101570.14;;;9.96;50.54
55044;BME280;54902;50.420;18.854;2023-05-10T00:18:59;101578.33;;;9.96;50.54
55044;BME280;54902;50.420;18.854;2023-05-10T00:19:30;101571.12;;;9.95;50.51
55044;BME280;54902;50.420;18.854;2023-05-10T00:20:02;101575.67;;;9.95;50.54
55044;BME280;54902;50.420;18.854;2023-05-10T00:20:36;101566.62;;;9.94;50.56
55044;BME280;54902;50.420;18.854;2023-05-10T00:21:07;101577.54;;;9.94;50.56
55044;BME280;54902;50.420;18.854;2023-05-10T00:21:38;101574.02;;;9.92;50.56
55044;BME280;54902;50.420;18.854;2023-05-10T00:22:09;101570.33;;;9.93;50.55
55044;BME280;54902;50.420;18.854;2023-05-10T00:22:40;101567.71;;;9.92;50.57
55044;BME280;54902;50.420;18.854;2023-05-10T00:23:12;101575.01;;;9.91;50.57
55044;BME280;54902;50.420;18.854;2023-05-10T00:23:43;101572.27;;;9.91;50.58
55044;BME280;54902;50.420;18.854;2023-05-10T00:24:14;101573.16;;;9.92;50.59
55044;BME280;54902;50.420;18.854;2023-05-10T00:24:45;101572.27;;;9.91;50.58
55044;BME280;54902;50.420;18.854;2023-05-10T00:25:16;101571.41;;;9.91;50.59
55044;BME280;54902;50.420;18.854;2023-05-10T00:25:47;101567.81;;;9.90;50.60
55044;BME280;54902;50.420;18.854;2023-05-10T00:26:18;101575.11;;;9.90;50.60
55044;BME280;54902;50.420;18.854;2023-05-10T00:26:49;101572.48;;;9.88;50.62
55044;BME280;54902;50.420;18.854;2023-05-10T00:27:19;101568.79;;;9.89;50.61
55044;BME280;54902;50.420;18.854;2023-05-10T00:27:51;101569.77;;;9.88;50.61
55044;BME280;54902;50.420;18.854;2023-05-10T00:28:22;101578.81;;;9.89;50.62
55044;BME280;54902;50.420;18.854;2023-05-10T00:28:53;101567.14;;;9.87;50.62
55044;BME280;54902;50.420;18.854;2023-05-10T00:29:24;101568.00;;;9.87;50.63
55044;BME280;54902;50.420;18.854;2023-05-10T00:29:55;101574.43;;;9.86;50.64
55044;BME280;54902;50.420;18.854;2023-05-10T00:30:26;101564.52;;;9.85;50.65
55044;BME280;54902;50.420;18.854;2023-05-10T00:30:57;101559.06;;;9.85;50.65
55044;BME280;54902;50.420;18.854;2023-05-10T00:31:28;101571.80;;;9.85;50.67
55044;BME280;54902;50.420;18.854;2023-05-10T00:31:59;101565.49;;;9.84;50.65
55044;BME280;54902;50.420;18.854;2023-05-10T00:32:30;101561.79;;;9.85;50.69
55044;BME280;54902;50.420;18.854;2023-05-10T00:33:01;101562.88;;;9.83;50.67
55044;BME280;54902;50.420;18.854;2023-05-10T00:33:32;101579.13;;;9.84;50.63
55044;BME280;54902;50.420;18.854;2023-05-10T00:34:03;101563.73;;;9.83;50.68
55044;BME280;54902;50.420;18.854;2023-05-10T00:34:33;101551.49;;;9.77;50.66
55044;BME280;54902;50.420;18.854;2023-05-10T00:35:05;101561.98;;;9.83;50.72
55044;BME280;54902;50.420;18.854;2023-05-10T00:35:36;101563.84;;;9.82;50.72
55044;BME280;54902;50.420;18.854;2023-05-10T00:36:08;101570.27;;;9.81;50.72
55044;BME280;54902;50.420;18.854;2023-05-10T00:36:39;101571.27;;;9.80;50.70
55044;BME280;54902;50.420;18.854;2023-05-10T00:37:11;101562.20;;;9.80;50.70
55044;BME280;54902;50.420;18.854;2023-05-10T00:37:41;101560.37;;;9.80;50.72
55044;BME280;54902;50.420;18.854;2023-05-10T00:38:13;101558.61;;;9.79;50.71
55044;BME280;54902;50.420;18.854;2023-05-10T00:38:44;101564.92;;;9.80;50.73
55044;BME280;54902;50.420;18.854;2023-05-10T00:39:16;101549.53;;;9.79;50.71
55044;BME280;54902;50.420;18.854;2023-05-10T00:39:47;101564.17;;;9.78;50.75
55044;BME280;54902;50.420;18.854;2023-05-10T00:40:18;101562.42;;;9.77;50.74
55044;BME280;54902;50.420;18.854;2023-05-10T00:40:49;101562.42;;;9.77;50.75
55044;BME280;54902;50.420;18.854;2023-05-10T00:41:20;101559.69;;;9.77;50.77
55044;BME280;54902;50.420;18.854;2023-05-10T00:41:52;101558.79;;;9.76;50.78
55044;BME280;54902;50.420;18.854;2023-05-10T00:42:23;101554.34;;;9.75;50.86
55044;BME280;54902;50.420;18.854;2023-05-10T00:42:54;101560.65;;;9.76;50.86
55044;BME280;54902;50.420;18.854;2023-05-10T00:43:25;101563.38;;;9.76;50.81
55044;BME280;54902;50.420;18.854;2023-05-10T00:43:56;101559.90;;;9.74;50.82
55044;BME280;54902;50.420;18.854;2023-05-10T00:44:27;101556.28;;;9.73;50.83
55044;BME280;54902;50.420;18.854;2023-05-10T00:45:00;101560.87;;;9.73;50.81
55044;BME280;54902;50.420;18.854;2023-05-10T00:45:32;101561.84;;;9.72;50.80
55044;BME280;54902;50.420;18.854;2023-05-10T00:46:04;101556.38;;;9.72;50.80
55044;BME280;54902;50.420;18.854;2023-05-10T00:46:36;101562.82;;;9.71;50.82
55044;BME280;54902;50.420;18.854;2023-05-10T00:47:07;101560.20;;;9.69;50.80
55044;BME280;54902;50.420;18.854;2023-05-10T00:47:39;101555.63;;;9.70;50.80
55044;BME280;54902;50.420;18.854;2023-05-10T00:48:11;101557.58;;;9.68;50.82
55044;BME280;54902;50.420;18.854;2023-05-10T00:48:43;101561.16;;;9.68;50.83
55044;BME280;54902;50.420;18.854;2023-05-10T00:49:16;101559.34;;;9.69;50.82
55044;BME280;54902;50.420;18.854;2023-05-10T00:49:47;101553.98;;;9.67;50.87
55044;BME280;54902;50.420;18.854;2023-05-10T00:50:18;101554.95;;;9.66;50.87
55044;BME280;54902;50.420;18.854;2023-05-10T00:50:49;101554.95;;;9.66;50.83
55044;BME280;54902;50.420;18.854;2023-05-10T00:51:20;101550.58;;;9.64;50.85
55044;BME280;54902;50.420;18.854;2023-05-10T00:51:51;101553.30;;;9.64;50.85
55044;BME280;54902;50.420;18.854;2023-05-10T00:52:23;101560.63;;;9.63;50.86
55044;BME280;54902;50.420;18.854;2023-05-10T00:52:54;101549.73;;;9.63;50.84
55044;BME280;54902;50.420;18.854;2023-05-10T00:53:26;101558.87;;;9.62;50.88
55044;BME280;54902;50.420;18.854;2023-05-10T00:53:58;101557.98;;;9.62;50.90
55044;BME280;54902;50.420;18.854;2023-05-10T00:54:29;101565.41;;;9.60;50.89
55044;BME280;54902;50.420;18.854;2023-05-10T00:55:01;101561.71;;;9.61;50.90
55044;BME280;54902;50.420;18.854;2023-05-10T00:55:33;101551.88;;;9.58;50.89
55044;BME280;54902;50.420;18.854;2023-05-10T00:56:05;101553.70;;;9.58;50.89
55044;BME280;54902;50.420;18.854;2023-05-10T00:56:36;101555.57;;;9.57;50.89
55044;BME280;54902;50.420;18.854;2023-05-10T00:57:08;101551.98;;;9.57;50.91
55044;BME280;54902;50.420;18.854;2023-05-10T00:57:39;101558.41;;;9.56;50.88
55044;BME280;54902;50.420;18.854;2023-05-10T00:58:10;101556.66;;;9.55;50.94
55044;BME280;54902;50.420;18.854;2023-05-10T00:58:43;101558.41;;;9.56;50.95
55044;BME280;54902;50.420;18.854;2023-05-10T00:59:18;101551.20;;;9.55;51.00
55044;BME280;54902;50.420;18.854;2023-05-10T00:59:49;101554.90;;;9.54;50.98
55044;BME280;54902;50.420;18.854;2023-05-10T01:00:21;101554.90;;;9.54;50.97
55044;BME280;54902;50.420;18.854;2023-05-10T01:00:52;101558.63;;;9.53;50.93
55044;BME280;54902;50.420;18.854;2023-05-10T01:01:23;101557.73;;;9.52;50.95
55044;BME280;54902;50.420;18.854;2023-05-10T01:01:54;101557.84;;;9.51;50.96
55044;BME280;54902;50.420;18.854;2023-05-10T01:02:25;101558.80;;;9.50;50.96
55044;BME280;54902;50.420;18.854;2023-05-10T01:02:56;101556.08;;;9.50;50.98
55044;BME280;54902;50.420;18.854;2023-05-10T01:03:27;101553.35;;;9.50;50.98
55044;BME280;54902;50.420;18.854;2023-05-10T01:03:59;101549.87;;;9.48;50.99
55044;BME280;54902;50.420;18.854;2023-05-10T01:04:30;101548.98;;;9.47;51.00
55044;BME280;54902;50.420;18.854;2023-05-10T01:05:02;101553.56;;;9.47;50.99
55044;BME280;54902;50.420;18.854;2023-05-10T01:05:36;101546.35;;;9.46;50.99
55044;BME280;54902;50.420;18.854;2023-05-10T01:06:07;101550.09;;;9.45;51.00
55044;BME280;54902;50.420;18.854;2023-05-10T01:06:41;101547.36;;;9.45;51.00
55044;BME280;54902;50.420;18.854;2023-05-10T01:07:12;101551.05;;;9.44;51.00
55044;BME280;54902;50.420;18.854;2023-05-10T01:07:43;101548.32;;;9.44;51.00
55044;BME280;54902;50.420;18.854;2023-05-10T01:08:14;101551.16;;;9.42;51.03
55044;BME280;54902;50.420;18.854;2023-05-10T01:08:45;101556.61;;;9.42;51.05
55044;BME280;54902;50.420;18.854;2023-05-10T01:09:16;101550.27;;;9.42;51.04
55044;BME280;54902;50.420;18.854;2023-05-10T01:09:48;101554.00;;;9.41;51.06
55044;BME280;54902;50.420;18.854;2023-05-10T01:10:19;101544.91;;;9.40;51.04
55044;BME280;54902;50.420;18.854;2023-05-10T01:10:50;101548.61;;;9.39;51.04
55044;BME280;54902;50.420;18.854;2023-05-10T01:11:23;101550.48;;;9.39;51.03
55044;BME280;54902;50.420;18.854;2023-05-10T01:11:54;101552.34;;;9.38;51.03
55044;BME280;54902;50.420;18.854;2023-05-10T01:12:26;101549.62;;;9.38;51.06
55044;BME280;54902;50.420;18.854;2023-05-10T01:12:59;101550.69;;;9.36;51.06
55044;BME280;54902;50.420;18.854;2023-05-10T01:13:33;101552.52;;;9.35;51.09
55044;BME280;54902;50.420;18.854;2023-05-10T01:14:06;101555.26;;;9.35;51.08
55044;BME280;54902;50.420;18.854;2023-05-10T01:14:37;101548.08;;;9.34;51.10
55044;BME280;54902;50.420;18.854;2023-05-10T01:15:10;101543.59;;;9.33;51.09
55044;BME280;54902;50.420;18.854;2023-05-10T01:15:42;101539.96;;;9.33;51.09
55044;BME280;54902;50.420;18.854;2023-05-10T01:16:13;101549.15;;;9.32;51.11
55044;BME280;54902;50.420;18.854;2023-05-10T01:16:44;101541.94;;;9.31;51.09
55044;BME280;54902;50.420;18.854;2023-05-10T01:17:15;101540.18;;;9.30;51.13
55044;BME280;54902;50.420;18.854;2023-05-10T01:17:48;101545.63;;;9.30;51.16
55044;BME280;54902;50.420;18.854;2023-05-10T01:18:20;101545.63;;;9.30;51.14
55044;BME280;54902;50.420;18.854;2023-05-10T01:18:52;101539.32;;;9.29;51.14
55044;BME280;54902;50.420;18.854;2023-05-10T01:19:25;101549.33;;;9.29;51.13
55044;BME280;54902;50.420;18.854;2023-05-10T01:19:57;101544.88;;;9.28;51.13
55044;BME280;54902;50.420;18.854;2023-05-10T01:20:32;101546.70;;;9.27;51.15
55044;BME280;54902;50.420;18.854;2023-05-10T01:22:02;101541.37;;;9.26;51.16
55044;BME280;54902;50.420;18.854;2023-05-10T01:23:31;101542.34;;;9.25;51.18
55044;BME280;54902;50.420;18.854;2023-05-10T01:26:26;101535.34;;;9.21;51.22
55044;BME280;54902;50.420;18.854;2023-05-10T01:27:03;101534.48;;;9.21;51.21
55044;BME280;54902;50.420;18.854;2023-05-10T01:32:10;101540.23;;;9.16;51.29
55044;BME280;54902;50.420;18.854;2023-05-10T01:33:35;101533.13;;;9.14;51.30
55044;BME280;54902;50.420;18.854;2023-05-10T01:34:09;101539.45;;;9.14;51.30
55044;BME280;54902;50.420;18.854;2023-05-10T01:35:40;101543.14;;;9.13;51.31
55044;BME280;54902;50.420;18.854;2023-05-10T01:37:06;101538.66;;;9.12;51.38
55044;BME280;54902;50.420;18.854;2023-05-10T01:37:50;101542.28;;;9.13;51.39
55044;BME280;54902;50.420;18.854;2023-05-10T01:39:17;101538.88;;;9.09;51.39
55044;BME280;54902;50.420;18.854;2023-05-10T01:39:58;101537.91;;;9.10;51.36
55044;BME280;54902;50.420;18.854;2023-05-10T01:40:40;101537.91;;;9.10;51.37
55044;BME280;54902;50.420;18.854;2023-05-10T01:41:20;101540.63;;;9.10;51.40
55044;BME280;54902;50.420;18.854;2023-05-10T01:42:40;101532.55;;;9.09;51.38
55044;BME280;54902;50.420;18.854;2023-05-10T01:43:21;101534.39;;;9.08;51.37
55044;BME280;54902;50.420;18.854;2023-05-10T01:43:58;101536.25;;;9.08;51.39
55044;BME280;54902;50.420;18.854;2023-05-10T01:46:05;101529.15;;;9.05;51.40
55044;BME280;54902;50.420;18.854;2023-05-10T01:46:41;101529.15;;;9.05;51.40
55044;BME280;54902;50.420;18.854;2023-05-10T01:47:21;101540.95;;;9.06;51.40
55044;BME280;54902;50.420;18.854;2023-05-10T01:48:41;101526.52;;;9.04;51.42
55044;BME280;54902;50.420;18.854;2023-05-10T01:49:26;101539.30;;;9.03;51.45
55044;BME280;54902;50.420;18.854;2023-05-10T01:50:02;101541.13;;;9.03;51.44
55044;BME280;54902;50.420;18.854;2023-05-10T01:50:35;101541.13;;;9.03;51.44
55044;BME280;54902;50.420;18.854;2023-05-10T01:51:09;101526.73;;;9.01;51.45
55044;BME280;54902;50.420;18.854;2023-05-10T01:51:49;101534.02;;;9.00;51.47
55044;BME280;54902;50.420;18.854;2023-05-10T01:52:33;101535.88;;;9.00;51.49
55044;BME280;54902;50.420;18.854;2023-05-10T01:53:09;101527.81;;;8.98;51.50
55044;BME280;54902;50.420;18.854;2023-05-10T01:53:42;101533.26;;;8.98;51.53
55044;BME280;54902;50.420;18.854;2023-05-10T01:54:17;101532.36;;;8.98;51.51
55044;BME280;54902;50.420;18.854;2023-05-10T01:55:04;101526.91;;;8.98;51.51
55044;BME280;54902;50.420;18.854;2023-05-10T01:55:35;101524.30;;;8.96;51.52
55044;BME280;54902;50.420;18.854;2023-05-10T01:56:07;101529.75;;;8.96;51.54
55044;BME280;54902;50.420;18.854;2023-05-10T01:56:40;101526.16;;;8.96;51.55
55044;BME280;54902;50.420;18.854;2023-05-10T01:57:15;101520.81;;;8.94;51.55
55044;BME280;54902;50.420;18.854;2023-05-10T01:57:56;101527.12;;;8.95;51.57
55044;BME280;54902;50.420;18.854;2023-05-10T01:58:31;101525.37;;;8.94;51.58
55044;BME280;54902;50.420;18.854;2023-05-10T01:59:07;101528.99;;;8.94;51.59
55044;BME280;54902;50.420;18.854;2023-05-10T01:59:40;101533.64;;;8.92;51.57
55044;BME280;54902;50.420;18.854;2023-05-10T02:00:14;101516.33;;;8.93;51.61
55044;BME280;54902;50.420;18.854;2023-05-10T02:00:49;101521.02;;;8.91;51.58
55044;BME280;54902;50.420;18.854;2023-05-10T02:01:21;101526.47;;;8.91;51.59
55044;BME280;54902;50.420;18.854;2023-05-10T02:01:54;101515.57;;;8.91;51.62
55044;BME280;54902;50.420;18.854;2023-05-10T02:02:27;101513.82;;;8.90;51.62
55044;BME280;54902;50.420;18.854;2023-05-10T02:03:00;101523.75;;;8.91;51.63
55044;BME280;54902;50.420;18.854;2023-05-10T02:03:34;101521.99;;;8.90;51.63
55044;BME280;54902;50.420;18.854;2023-05-10T02:04:07;101519.27;;;8.90;51.66
55044;BME280;54902;50.420;18.854;2023-05-10T02:04:41;101521.20;;;8.88;51.66
55044;BME280;54902;50.420;18.854;2023-05-10T02:05:16;101521.20;;;8.88;51.64
55044;BME280;54902;50.420;18.854;2023-05-10T02:05:49;101519.44;;;8.87;51.67
55044;BME280;54902;50.420;18.854;2023-05-10T02:06:22;101519.44;;;8.87;51.70
55044;BME280;54902;50.420;18.854;2023-05-10T02:06:55;101519.44;;;8.87;51.69
55044;BME280;54902;50.420;18.854;2023-05-10T02:07:28;101521.30;;;8.87;51.70
55044;BME280;54902;50.420;18.854;2023-05-10T02:08:01;101519.44;;;8.87;51.70
55044;BME280;54902;50.420;18.854;2023-05-10T02:08:35;101515.95;;;8.85;51.70
55044;BME280;54902;50.420;18.854;2023-05-10T02:09:09;101515.10;;;8.85;51.72
55044;BME280;54902;50.420;18.854;2023-05-10T02:09:44;101510.51;;;8.85;51.74
55044;BME280;54902;50.420;18.854;2023-05-10T02:10:19;101518.68;;;8.85;51.73
55044;BME280;54902;50.420;18.854;2023-05-10T02:10:54;101519.65;;;8.84;51.72
55044;BME280;54902;50.420;18.854;2023-05-10T02:11:27;101518.79;;;8.84;51.73
55044;BME280;54902;50.420;18.854;2023-05-10T02:12:01;101518.79;;;8.84;51.74
55044;BME280;54902;50.420;18.854;2023-05-10T02:12:41;101527.82;;;8.84;51.72
55044;BME280;54902;50.420;18.854;2023-05-10T02:13:14;101517.89;;;8.83;51.75
55044;BME280;54902;50.420;18.854;2023-05-10T02:13:46;101523.34;;;8.83;51.74
55044;BME280;54902;50.420;18.854;2023-05-10T02:14:18;101518.89;;;8.82;51.76
55044;BME280;54902;50.420;18.854;2023-05-10T02:14:51;101511.59;;;8.83;51.75
55044;BME280;54902;50.420;18.854;2023-05-10T02:15:25;101517.03;;;8.83;51.76
55044;BME280;54902;50.420;18.854;2023-05-10T02:15:57;101518.89;;;8.82;51.76
55044;BME280;54902;50.420;18.854;2023-05-10T02:16:29;101521.62;;;8.82;51.77
55044;BME280;54902;50.420;18.854;2023-05-10T02:17:06;101513.44;;;8.82;51.80
55044;BME280;54902;50.420;18.854;2023-05-10T02:17:39;101514.41;;;8.81;51.81
55044;BME280;54902;50.420;18.854;2023-05-10T02:18:11;101511.68;;;8.81;51.80
55044;BME280;54902;50.420;18.854;2023-05-10T02:18:44;101516.16;;;8.82;51.83
55044;BME280;54902;50.420;18.854;2023-05-10T02:19:16;101514.41;;;8.81;51.76
55044;BME280;54902;50.420;18.854;2023-05-10T02:19:48;101510.89;;;8.79;51.84
55044;BME280;54902;50.420;18.854;2023-05-10T02:20:20;101510.89;;;8.79;51.84
55044;BME280;54902;50.420;18.854;2023-05-10T02:20:53;101502.72;;;8.79;51.85
55044;BME280;54902;50.420;18.854;2023-05-10T02:21:26;101509.93;;;8.80;51.85
55044;BME280;54902;50.420;18.854;2023-05-10T02:21:59;101511.79;;;8.80;51.86
55044;BME280;54902;50.420;18.854;2023-05-10T02:22:32;101506.34;;;8.80;51.86
55044;BME280;54902;50.420;18.854;2023-05-10T02:23:04;101509.17;;;8.78;51.88
55044;BME280;54902;50.420;18.854;2023-05-10T02:23:36;101515.48;;;8.79;51.89
55044;BME280;54902;50.420;18.854;2023-05-10T02:24:09;101501.97;;;8.77;51.88
55044;BME280;54902;50.420;18.854;2023-05-10T02:24:43;101504.69;;;8.77;51.89
55044;BME280;54902;50.420;18.854;2023-05-10T02:25:15;101508.27;;;8.78;51.88
55044;BME280;54902;50.420;18.854;2023-05-10T02:25:49;101503.73;;;8.78;51.89
55044;BME280;54902;50.420;18.854;2023-05-10T02:26:23;101512.86;;;8.77;51.90
55044;BME280;54902;50.420;18.854;2023-05-10T02:26:56;101501.97;;;8.77;51.89
55044;BME280;54902;50.420;18.854;2023-05-10T02:27:28;101505.65;;;8.76;51.91
55044;BME280;54902;50.420;18.854;2023-05-10T02:28:02;101512.07;;;8.75;51.92
55044;BME280;54902;50.420;18.854;2023-05-10T02:28:35;101509.34;;;8.75;51.94
55044;BME280;54902;50.420;18.854;2023-05-10T02:29:09;101505.65;;;8.76;51.95
55044;BME280;54902;50.420;18.854;2023-05-10T02:29:43;101504.00;;;8.74;51.93
55044;BME280;54902;50.420;18.854;2023-05-10T02:30:15;101509.34;;;8.75;51.95
55044;BME280;54902;50.420;18.854;2023-05-10T02:30:47;101490.70;;;8.69;51.94
55044;BME280;54902;50.420;18.854;2023-05-10T02:31:19;101502.24;;;8.73;51.94
55044;BME280;54902;50.420;18.854;2023-05-10T02:31:54;101494.96;;;8.73;52.04
55044;BME280;54902;50.420;18.854;2023-05-10T02:32:27;101498.66;;;8.72;51.97
55044;BME280;54902;50.420;18.854;2023-05-10T02:32:58;101498.66;;;8.72;52.00
55044;BME280;54902;50.420;18.854;2023-05-10T02:33:31;101504.11;;;8.72;52.03
55044;BME280;54902;50.420;18.854;2023-05-10T02:34:04;101499.63;;;8.71;51.98
55044;BME280;54902;50.420;18.854;2023-05-10T02:34:38;101498.66;;;8.72;52.00
55044;BME280;54902;50.420;18.854;2023-05-10T02:35:10;101502.34;;;8.71;52.05
55044;BME280;54902;50.420;18.854;2023-05-10T02:35:42;101502.34;;;8.71;52.03
55044;BME280;54902;50.420;18.854;2023-05-10T02:36:13;101501.48;;;8.71;52.04
55044;BME280;54902;50.420;18.854;2023-05-10T02:36:45;101501.48;;;8.71;52.02
55044;BME280;54902;50.420;18.854;2023-05-10T02:37:19;101500.63;;;8.70;52.03
55044;BME280;54902;50.420;18.854;2023-05-10T02:37:50;101504.21;;;8.71;52.02
55044;BME280;54902;50.420;18.854;2023-05-10T02:38:22;101500.63;;;8.70;52.03
55044;BME280;54902;50.420;18.854;2023-05-10T02:38:56;101501.58;;;8.69;52.07
55044;BME280;54902;50.420;18.854;2023-05-10T02:39:29;101500.63;;;8.70;52.06
55044;BME280;54902;50.420;18.854;2023-05-10T02:40:02;101497.90;;;8.70;52.05
55044;BME280;54902;50.420;18.854;2023-05-10T02:40:36;101505.17;;;8.70;52.05
55044;BME280;54902;50.420;18.854;2023-05-10T02:41:09;101498.86;;;8.69;52.08
55044;BME280;54902;50.420;18.854;2023-05-10T02:41:42;101501.69;;;8.68;52.05
55044;BME280;54902;50.420;18.854;2023-05-10T02:42:17;101501.58;;;8.69;52.04
55044;BME280;54902;50.420;18.854;2023-05-10T02:42:52;101501.69;;;8.68;52.05
55044;BME280;54902;50.420;18.854;2023-05-10T02:43:25;101501.69;;;8.68;52.08
55044;BME280;54902;50.420;18.854;2023-05-10T02:43:59;101499.83;;;8.68;52.08
55044;BME280;54902;50.420;18.854;2023-05-10T02:44:35;101501.69;;;8.68;52.07
55044;BME280;54902;50.420;18.854;2023-05-10T02:45:12;101500.79;;;8.68;52.09
55044;BME280;54902;50.420;18.854;2023-05-10T02:45:47;101497.21;;;8.67;52.10
55044;BME280;54902;50.420;18.854;2023-05-10T02:46:18;101495.45;;;8.66;52.11
55044;BME280;54902;50.420;18.854;2023-05-10T02:46:50;101492.73;;;8.66;52.12
55044;BME280;54902;50.420;18.854;2023-05-10T02:47:21;101495.45;;;8.66;52.13
55044;BME280;54902;50.420;18.854;2023-05-10T02:47:52;101501.87;;;8.65;52.13
55044;BME280;54902;50.420;18.854;2023-05-10T02:48:23;101497.31;;;8.66;52.15
55044;BME280;54902;50.420;18.854;2023-05-10T02:48:54;101500.03;;;8.66;52.17
55044;BME280;54902;50.420;18.854;2023-05-10T02:49:25;101503.73;;;8.65;52.15
55044;BME280;54902;50.420;18.854;2023-05-10T02:49:56;101506.45;;;8.65;52.17
55044;BME280;54902;50.420;18.854;2023-05-10T02:50:28;101502.86;;;8.64;52.18
55044;BME280;54902;50.420;18.854;2023-05-10T02:51:04;101504.70;;;8.64;52.18
55044;BME280;54902;50.420;18.854;2023-05-10T02:51:41;101504.70;;;8.64;52.20
55044;BME280;54902;50.420;18.854;2023-05-10T02:52:16;101508.38;;;8.63;52.19
55044;BME280;54902;50.420;18.854;2023-05-10T02:52:51;101502.07;;;8.62;52.20
55044;BME280;54902;50.420;18.854;2023-05-10T02:53:33;101508.38;;;8.63;52.20
55044;BME280;54902;50.420;18.854;2023-05-10T02:54:12;101502.07;;;8.62;52.23
55044;BME280;54902;50.420;18.854;2023-05-10T02:54:49;101503.94;;;8.62;52.22
55044;BME280;54902;50.420;18.854;2023-05-10T02:55:23;101504.90;;;8.61;52.25
55044;BME280;54902;50.420;18.854;2023-05-10T02:55:59;101509.48;;;8.60;52.24
55044;BME280;54902;50.420;18.854;2023-05-10T02:56:33;101508.58;;;8.60;52.22
55044;BME280;54902;50.420;18.854;2023-05-10T02:57:06;101501.38;;;8.59;52.27
55044;BME280;54902;50.420;18.854;2023-05-10T02:57:41;101500.52;;;8.58;52.20
55044;BME280;54902;50.420;18.854;2023-05-10T02:58:13;101501.38;;;8.59;52.22
55044;BME280;54902;50.420;18.854;2023-05-10T02:58:44;101506.83;;;8.59;52.20
55044;BME280;54902;50.420;18.854;2023-05-10T02:59:18;101505.97;;;8.58;52.19
55044;BME280;54902;50.420;18.854;2023-05-10T02:59:50;101497.90;;;8.57;52.18
55044;BME280;54902;50.420;18.854;2023-05-10T03:00:22;101503.34;;;8.57;52.18
55044;BME280;54902;50.420;18.854;2023-05-10T03:00:53;101497.90;;;8.57;52.21
55044;BME280;54902;50.420;18.854;2023-05-10T03:01:24;101503.45;;;8.55;52.23
55044;BME280;54902;50.420;18.854;2023-05-10T03:01:54;101503.45;;;8.55;52.22
55044;BME280;54902;50.420;18.854;2023-05-10T03:02:26;101508.00;;;8.55;52.22
55044;BME280;54902;50.420;18.854;2023-05-10T03:02:57;101502.55;;;8.55;52.24
55044;BME280;54902;50.420;18.854;2023-05-10T03:03:28;101515.30;;;8.54;52.26
55044;BME280;54902;50.420;18.854;2023-05-10T03:03:59;101509.00;;;8.54;52.26
55044;BME280;54902;50.420;18.854;2023-05-10T03:04:30;101512.69;;;8.53;52.28
55044;BME280;54902;50.420;18.854;2023-05-10T03:05:01;101510.82;;;8.53;52.27
55044;BME280;54902;50.420;18.854;2023-05-10T03:05:33;101511.82;;;8.52;52.27
55044;BME280;54902;50.420;18.854;2023-05-10T03:06:04;101516.38;;;8.52;52.26
55044;BME280;54902;50.420;18.854;2023-05-10T03:06:35;101506.45;;;8.51;52.28